Buffalo, Illinois
Current Conditions -  °F | °C
As of 1:52 PM on Thursday 25 Dec 2014 (Local Time) from KSPI Reporting Station
Clear Clear  
Wind Chill: 42°   Ceiling: Unl
Heat Index: 49°   Visibility: 10mi
Dew Point: 35°   Wind: 18mph
Humidity: 59%   Direction: 190°S
Pressure: 29.97"   Gusts: 29mph
Location:  39.85°N, 89.41°W
Report Text: KSPI 251952Z 19016G25KT 10SM CLR 09/02 A2997 RMK AO2 SLP152 T00940017
Loading
Personal Weather Stations






























Interactive Weather Map New forecast layout! Learn more

10-Day Weather Forecast

Advertisements
Track Severe Weather on mobile